createdAt,value
2023-02-15T00:01:59.074Z,73.69
2023-02-15T00:04:45.030Z,74.24
2023-02-15T00:07:11.534Z,75.48
2023-02-15T00:09:38.144Z,77.47
2023-02-15T00:12:04.670Z,78.82
2023-02-15T00:14:31.080Z,79.65
2023-02-15T00:17:00.692Z,80.11
2023-02-15T00:19:27.207Z,80.23
2023-02-15T00:21:53.752Z,79.44
2023-02-15T00:24:20.641Z,79.68
2023-02-15T00:26:48.346Z,79.68
2023-02-15T00:29:16.821Z,79.56
2023-02-15T00:31:43.453Z,80.34
2023-02-15T00:34:21.661Z,80.40
2023-02-15T00:36:48.753Z,80.59
2023-02-15T00:39:16.475Z,80.81
2023-02-15T00:41:43.478Z,80.40
2023-02-15T00:44:10.516Z,79.94
2023-02-15T00:46:37.331Z,80.58
2023-02-15T00:49:04.039Z,80.03
2023-02-15T00:51:30.673Z,79.44
2023-02-15T00:53:57.132Z,79.74
2023-02-15T00:56:23.664Z,79.21
2023-02-15T00:58:50.149Z,79.30
2023-02-15T01:01:19.191Z,79.57
2023-02-15T01:03:47.388Z,79.66
2023-02-15T01:06:15.825Z,79.74
2023-02-15T01:08:42.567Z,79.60
2023-02-15T01:11:12.560Z,79.76
2023-02-15T01:13:39.560Z,80.09
2023-02-15T01:16:06.376Z,80.15
2023-02-15T01:18:33.993Z,80.78
2023-02-15T01:21:00.641Z,80.47
2023-02-15T01:23:27.272Z,81.19
2023-02-15T01:25:53.706Z,81.35
2023-02-15T01:28:20.127Z,81.57
2023-02-15T01:30:46.580Z,81.19
2023-02-15T01:33:18.717Z,80.71
2023-02-15T01:35:48.559Z,80.32
2023-02-15T01:38:15.292Z,79.98
2023-02-15T01:40:42.269Z,79.66
2023-02-15T01:43:13.126Z,79.12
2023-02-15T01:45:40.646Z,78.91
2023-02-15T01:48:28.244Z,78.92
2023-02-15T01:50:59.730Z,78.38
2023-02-15T01:53:34.803Z,78.31
2023-02-15T01:56:07.870Z,77.92
2023-02-15T01:58:36.263Z,77.74
2023-02-15T02:01:05.368Z,77.78
2023-02-15T02:03:37.323Z,77.76
2023-02-15T02:06:03.948Z,77.60
2023-02-15T02:08:31.128Z,78.02
2023-02-15T02:10:57.567Z,77.50
2023-02-15T02:13:24.080Z,77.43
2023-02-15T02:16:03.062Z,77.12
2023-02-15T02:18:48.671Z,77.65
2023-02-15T02:21:17.951Z,77.67
2023-02-15T02:24:18.917Z,77.76
2023-02-15T02:26:48.412Z,77.82
2023-02-15T02:29:43.260Z,77.53
2023-02-15T02:32:22.557Z,77.56
2023-02-15T02:35:30.237Z,77.78
2023-02-15T02:38:18.711Z,77.87
2023-02-15T02:40:50.891Z,78.09
2023-02-15T02:43:31.167Z,78.12
2023-02-15T02:46:02.242Z,78.24
2023-02-15T02:48:33.074Z,78.40
2023-02-15T02:50:59.850Z,78.19
2023-02-15T02:53:29.538Z,78.30
2023-02-15T02:56:33.906Z,78.45
2023-02-15T02:59:13.654Z,78.86
2023-02-15T03:01:50.930Z,78.52
2023-02-15T03:04:25.832Z,78.49
2023-02-15T03:07:08.805Z,78.95
2023-02-15T03:09:43.354Z,78.79
2023-02-15T03:12:14.170Z,79.01
2023-02-15T03:14:44.885Z,78.83
2023-02-15T03:17:14.121Z,78.94
2023-02-15T03:19:41.469Z,79.20
2023-02-15T03:22:14.573Z,78.96
2023-02-15T03:25:04.474Z,79.11
2023-02-15T03:27:37.185Z,79.71
2023-02-15T03:30:07.896Z,79.59
2023-02-15T03:32:38.305Z,79.70
2023-02-15T03:35:05.861Z,79.15
2023-02-15T03:37:41.854Z,78.04
2023-02-15T03:40:27.027Z,79.04
2023-02-15T03:43:01.624Z,78.70
2023-02-15T03:45:32.020Z,78.66
2023-02-15T03:48:01.158Z,78.43
2023-02-15T03:50:49.954Z,78.27
2023-02-15T03:53:22.038Z,78.76
2023-02-15T03:55:55.320Z,78.88
2023-02-15T03:58:40.327Z,78.42
2023-02-15T04:01:38.620Z,78.95
2023-02-15T04:04:17.361Z,79.17
2023-02-15T04:06:43.820Z,79.67
2023-02-15T04:09:29.054Z,79.61
2023-02-15T04:11:55.540Z,79.99
2023-02-15T04:14:40.636Z,79.83
2023-02-15T04:17:07.881Z,79.21
2023-02-15T04:19:53.419Z,79.54
2023-02-15T04:22:38.826Z,80.13
2023-02-15T04:25:12.479Z,81.28
2023-02-15T04:27:44.123Z,81.30
2023-02-15T04:30:12.296Z,81.36
2023-02-15T04:32:39.379Z,81.20
2023-02-15T04:35:06.907Z,81.25
2023-02-15T04:37:33.939Z,81.52
2023-02-15T04:40:00.408Z,81.60
2023-02-15T04:42:27.786Z,81.61
2023-02-15T04:44:54.923Z,81.77
2023-02-15T04:47:21.554Z,81.71
2023-02-15T04:49:48.047Z,82.51
2023-02-15T04:52:14.537Z,82.95
2023-02-15T04:54:41.514Z,82.85
2023-02-15T04:57:08.108Z,83.22
2023-02-15T04:59:34.592Z,83.74
2023-02-15T05:02:01.059Z,83.67
2023-02-15T05:04:27.680Z,83.56
2023-02-15T05:06:54.327Z,83.52
2023-02-15T05:09:20.800Z,84.12
2023-02-15T05:11:47.336Z,83.53
2023-02-15T05:14:13.914Z,83.25
2023-02-15T05:16:40.507Z,83.06
2023-02-15T05:19:07.270Z,83.60
2023-02-15T05:21:34.150Z,83.94
2023-02-15T05:24:00.692Z,84.09
2023-02-15T05:26:45.601Z,83.94
2023-02-15T05:29:12.193Z,84.03
2023-02-15T05:31:39.303Z,84.58
2023-02-15T05:34:05.887Z,84.25
2023-02-15T05:36:32.351Z,84.12
2023-02-15T05:38:58.772Z,84.27
2023-02-15T05:41:26.582Z,84.61
2023-02-15T05:43:55.711Z,84.60
2023-02-15T05:46:22.229Z,84.71
2023-02-15T05:48:48.706Z,83.99
2023-02-15T05:51:16.796Z,83.99
2023-02-15T05:53:43.752Z,83.57
2023-02-15T05:56:12.142Z,83.53
2023-02-15T05:58:41.111Z,83.45
2023-02-15T06:01:19.224Z,83.78
2023-02-15T06:03:47.025Z,83.61
2023-02-15T06:06:14.002Z,83.17
2023-02-15T06:08:41.324Z,83.30
2023-02-15T06:11:08.140Z,83.06
2023-02-15T06:13:38.368Z,82.96
2023-02-15T06:16:06.441Z,83.00
2023-02-15T06:18:33.153Z,83.14
2023-02-15T06:20:59.586Z,82.99
2023-02-15T06:23:26.079Z,83.26
2023-02-15T06:25:52.667Z,83.16
2023-02-15T06:28:19.122Z,83.36
2023-02-15T06:30:45.585Z,83.87
2023-02-15T06:33:12.107Z,84.11
2023-02-15T06:35:38.585Z,84.01
2023-02-15T06:38:05.005Z,84.29
2023-02-15T06:40:31.416Z,84.56
2023-02-15T06:42:57.826Z,85.14
2023-02-15T06:45:24.409Z,85.06
2023-02-15T06:47:50.864Z,85.19
2023-02-15T06:50:20.256Z,85.13
2023-02-15T06:52:46.591Z,85.10
2023-02-15T06:55:13.075Z,85.32
2023-02-15T06:57:39.510Z,85.44
2023-02-15T07:00:09.668Z,85.33
2023-02-15T07:02:36.125Z,85.38
2023-02-15T07:05:02.778Z,85.69
2023-02-15T07:07:29.232Z,85.54
2023-02-15T07:09:55.701Z,85.78
2023-02-15T07:12:40.673Z,85.53
2023-02-15T07:15:08.594Z,85.42
2023-02-15T07:17:36.366Z,85.24
2023-02-15T07:20:08.909Z,85.05
2023-02-15T07:22:37.189Z,85.35
2023-02-15T07:25:04.988Z,85.34
2023-02-15T07:27:32.194Z,85.90
2023-02-15T07:29:59.147Z,85.70
2023-02-15T07:32:28.860Z,85.40
2023-02-15T07:34:55.434Z,84.86
2023-02-15T07:37:21.856Z,85.11
2023-02-15T07:39:48.380Z,84.84
2023-02-15T07:42:14.837Z,84.77
2023-02-15T07:44:41.461Z,84.36
2023-02-15T07:47:08.073Z,84.14
2023-02-15T07:49:34.525Z,84.38
2023-02-15T07:52:02.746Z,84.20
2023-02-15T07:54:29.247Z,84.13
2023-02-15T07:56:55.690Z,84.07
2023-02-15T07:59:22.243Z,84.04
2023-02-15T08:01:48.718Z,83.65
2023-02-15T08:04:15.224Z,84.20
2023-02-15T08:06:41.690Z,83.71
2023-02-15T08:09:09.715Z,83.39
2023-02-15T08:11:38.588Z,83.23
2023-02-15T08:14:08.058Z,82.78
2023-02-15T08:16:38.330Z,81.95
2023-02-15T08:19:11.448Z,80.08
2023-02-15T08:21:40.821Z,78.94
2023-02-15T08:24:08.398Z,77.76
2023-02-15T08:26:35.780Z,76.95
2023-02-15T08:29:03.366Z,76.12
2023-02-15T08:31:30.405Z,75.85
2023-02-15T08:33:57.917Z,75.13
2023-02-15T08:36:28.047Z,73.48
2023-02-15T08:38:54.460Z,71.53
2023-02-15T08:41:25.957Z,72.33
2023-02-15T08:43:54.824Z,71.49
2023-02-15T08:46:22.924Z,71.96
2023-02-15T08:48:49.442Z,72.31
2023-02-15T08:51:18.839Z,72.79
2023-02-15T08:53:51.034Z,71.14
2023-02-15T08:56:20.075Z,71.16
2023-02-15T08:58:46.924Z,71.24
2023-02-15T09:01:21.583Z,71.60
2023-02-15T09:03:50.849Z,68.85
2023-02-15T09:06:18.149Z,68.33
2023-02-15T09:08:44.676Z,68.03
2023-02-15T09:11:14.658Z,66.73
2023-02-15T09:13:41.156Z,66.35
2023-02-15T09:16:10.445Z,64.85
2023-02-15T09:18:39.762Z,66.24
2023-02-15T09:21:11.300Z,67.12
2023-02-15T09:23:38.071Z,67.08
2023-02-15T09:26:12.904Z,66.16
2023-02-15T09:28:40.227Z,65.14
2023-02-15T09:31:18.683Z,64.47
2023-02-15T09:33:46.870Z,62.00
2023-02-15T09:36:22.520Z,60.96
2023-02-15T09:38:56.248Z,60.25
2023-02-15T09:41:25.682Z,59.46
2023-02-15T09:44:06.110Z,58.96
2023-02-15T09:46:44.700Z,58.85
2023-02-15T09:49:34.207Z,59.39
2023-02-15T09:52:18.567Z,59.49
2023-02-15T09:55:02.158Z,59.79
2023-02-15T09:57:46.612Z,58.59
2023-02-15T10:00:27.162Z,59.25
2023-02-15T10:03:12.911Z,56.74
2023-02-15T10:06:07.536Z,57.43
2023-02-15T10:08:58.266Z,56.69
2023-02-15T10:11:42.818Z,54.79
2023-02-15T10:14:41.656Z,55.23
2023-02-15T10:17:26.864Z,54.95
2023-02-15T10:20:31.166Z,55.15
2023-02-15T10:23:26.442Z,53.55
2023-02-15T10:26:28.375Z,52.09
2023-02-15T10:29:03.601Z,51.47
2023-02-15T10:31:48.344Z,52.06
2023-02-15T10:34:21.268Z,50.24
2023-02-15T10:37:17.213Z,48.01
2023-02-15T10:40:26.034Z,48.90
2023-02-15T10:42:55.088Z,46.59
2023-02-15T10:45:53.847Z,48.34
2023-02-15T10:48:41.443Z,44.42
2023-02-15T10:51:17.038Z,43.96
2023-02-15T10:53:57.219Z,43.11
2023-02-15T10:56:39.601Z,43.21
2023-02-15T10:59:41.042Z,42.91
2023-02-15T11:02:37.581Z,42.16
2023-02-15T11:05:30.464Z,42.34
2023-02-15T11:08:00.803Z,42.06
2023-02-15T11:10:43.112Z,44.71
2023-02-15T11:13:35.012Z,47.08
2023-02-15T11:16:12.903Z,48.89
2023-02-15T11:18:42.503Z,50.96
2023-02-15T11:21:18.584Z,52.74
2023-02-15T11:23:48.374Z,53.67
2023-02-15T11:26:20.795Z,53.56
2023-02-15T11:28:56.105Z,53.34
2023-02-15T11:31:26.619Z,53.32
2023-02-15T11:34:04.171Z,54.64
2023-02-15T11:36:38.699Z,54.91
2023-02-15T11:39:18.452Z,52.92
2023-02-15T11:41:54.854Z,51.52
2023-02-15T11:44:34.592Z,50.97
2023-02-15T11:47:02.599Z,50.64
2023-02-15T11:49:34.131Z,51.85
2023-02-15T11:52:12.890Z,51.27
2023-02-15T11:54:45.367Z,50.41
2023-02-15T11:57:41.390Z,49.49
2023-02-15T12:00:29.025Z,49.59
2023-02-15T12:02:57.943Z,48.12
2023-02-15T12:05:25.768Z,47.95
2023-02-15T12:07:58.669Z,47.99
2023-02-15T12:10:29.303Z,47.34
2023-02-15T12:13:19.537Z,46.73
2023-02-15T12:15:49.942Z,46.59
2023-02-15T12:18:41.442Z,48.63
2023-02-15T12:21:12.848Z,49.00
2023-02-15T12:23:52.105Z,49.57
2023-02-15T12:26:36.003Z,49.02
2023-02-15T12:29:27.328Z,50.73
2023-02-15T12:31:54.680Z,47.84
2023-02-15T12:34:30.839Z,47.41
2023-02-15T12:37:03.165Z,47.34
2023-02-15T12:39:32.563Z,47.19
2023-02-15T12:42:17.396Z,46.98
2023-02-15T12:45:27.345Z,49.10
2023-02-15T12:48:18.142Z,49.26
2023-02-15T12:51:09.097Z,49.23
2023-02-15T12:53:37.099Z,48.89
2023-02-15T12:56:09.930Z,47.62
2023-02-15T12:58:43.123Z,48.06
2023-02-15T13:01:09.585Z,48.05
2023-02-15T13:03:38.670Z,49.23
2023-02-15T13:06:08.394Z,49.38
2023-02-15T13:08:40.421Z,47.94
2023-02-15T13:11:11.894Z,46.52
2023-02-15T13:14:00.253Z,45.70
2023-02-15T13:16:38.124Z,46.73
2023-02-15T13:19:15.656Z,47.19
2023-02-15T13:21:46.021Z,47.45
2023-02-15T13:24:49.340Z,47.68
2023-02-15T13:27:22.426Z,48.32
2023-02-15T13:29:58.282Z,49.33
2023-02-15T13:32:33.144Z,48.96
2023-02-15T13:35:02.482Z,48.93
2023-02-15T13:37:54.051Z,49.47
2023-02-15T13:40:34.812Z,49.69
2023-02-15T13:43:16.161Z,50.06
2023-02-15T13:46:09.418Z,48.58
2023-02-15T13:49:11.184Z,47.41
2023-02-15T13:52:02.681Z,47.45
2023-02-15T13:54:50.916Z,47.26
2023-02-15T13:57:41.353Z,47.77
2023-02-15T14:00:31.407Z,47.56
2023-02-15T14:03:16.739Z,47.23
2023-02-15T14:06:09.204Z,49.23
2023-02-15T14:08:55.259Z,47.33
2023-02-15T14:11:33.875Z,46.69
2023-02-15T14:14:30.175Z,48.01
2023-02-15T14:17:07.604Z,46.79
2023-02-15T14:19:54.428Z,47.88
2023-02-15T14:22:32.894Z,47.61
2023-02-15T14:25:21.545Z,48.22
2023-02-15T14:28:09.368Z,47.27
2023-02-15T14:30:39.248Z,47.41
2023-02-15T14:33:08.859Z,47.39
2023-02-15T14:35:38.139Z,47.84
2023-02-15T14:38:10.492Z,48.95
2023-02-15T14:41:04.815Z,48.66
2023-02-15T14:44:02.473Z,48.58
2023-02-15T14:46:37.601Z,47.99
2023-02-15T14:49:03.975Z,48.50
2023-02-15T14:51:48.806Z,49.15
2023-02-15T14:54:18.375Z,47.80
2023-02-15T14:56:45.977Z,48.91
2023-02-15T14:59:12.362Z,49.31
2023-02-15T15:01:40.644Z,49.72
2023-02-15T15:04:12.815Z,51.86
2023-02-15T15:06:42.536Z,51.21
2023-02-15T15:09:23.233Z,51.80
2023-02-15T15:11:51.848Z,51.29
2023-02-15T15:14:33.689Z,51.88
2023-02-15T15:17:02.888Z,51.65
2023-02-15T15:19:51.817Z,51.97
2023-02-15T15:22:20.438Z,53.13
2023-02-15T15:24:49.006Z,53.45
2023-02-15T15:27:38.464Z,53.76
2023-02-15T15:30:14.246Z,54.46
2023-02-15T15:32:59.008Z,54.53
2023-02-15T15:35:57.504Z,55.78
2023-02-15T15:38:42.188Z,56.56
2023-02-15T15:41:19.919Z,56.72
2023-02-15T15:44:04.900Z,57.21
2023-02-15T15:46:40.517Z,57.87
2023-02-15T15:49:16.951Z,58.46
2023-02-15T15:51:46.076Z,58.16
2023-02-15T15:54:18.689Z,58.47
2023-02-15T15:56:52.320Z,58.30
2023-02-15T15:59:27.380Z,57.94
2023-02-15T16:01:53.998Z,58.25
2023-02-15T16:04:33.178Z,59.19
2023-02-15T16:07:34.813Z,58.45
2023-02-15T16:10:20.967Z,59.14
2023-02-15T16:12:49.656Z,59.99
2023-02-15T16:15:25.388Z,60.69
2023-02-15T16:17:58.010Z,61.00
2023-02-15T16:20:32.458Z,61.10
2023-02-15T16:23:36.708Z,61.50
2023-02-15T16:26:41.077Z,61.45
2023-02-15T16:29:20.044Z,61.14
2023-02-15T16:32:16.584Z,61.03
2023-02-15T16:34:57.993Z,61.90
2023-02-15T16:37:32.450Z,62.08
2023-02-15T16:39:58.941Z,61.40
2023-02-15T16:42:26.420Z,61.44
2023-02-15T16:44:58.230Z,61.58
2023-02-15T16:47:30.969Z,62.69
2023-02-15T16:50:02.862Z,63.13
2023-02-15T16:52:30.602Z,63.67
2023-02-15T16:55:03.412Z,64.05
2023-02-15T16:57:39.215Z,64.61
2023-02-15T17:00:08.269Z,64.90
2023-02-15T17:02:55.031Z,64.71
2023-02-15T17:05:22.307Z,64.95
2023-02-15T17:08:05.936Z,65.50
2023-02-15T17:10:42.545Z,64.79
2023-02-15T17:13:17.291Z,65.06
2023-02-15T17:16:05.385Z,65.86
2023-02-15T17:18:33.993Z,65.39
2023-02-15T17:21:09.720Z,65.14
2023-02-15T17:23:46.308Z,65.26
2023-02-15T17:26:17.020Z,65.08
2023-02-15T17:28:49.295Z,65.17
2023-02-15T17:31:18.762Z,65.94
2023-02-15T17:33:45.591Z,65.31
2023-02-15T17:36:22.703Z,65.02
2023-02-15T17:38:58.237Z,66.34
2023-02-15T17:41:25.703Z,65.90
2023-02-15T17:43:52.346Z,65.61
2023-02-15T17:46:24.713Z,66.22
2023-02-15T17:48:53.465Z,65.74
2023-02-15T17:51:20.696Z,65.79
2023-02-15T17:54:06.484Z,66.47
2023-02-15T17:56:37.875Z,66.30
2023-02-15T17:59:08.136Z,68.50
2023-02-15T18:01:58.307Z,67.39
2023-02-15T18:04:43.580Z,66.66
2023-02-15T18:07:37.430Z,66.21
2023-02-15T18:10:37.502Z,65.94
2023-02-15T18:13:04.402Z,66.50
2023-02-15T18:15:31.104Z,66.85
2023-02-15T18:17:57.797Z,67.15
2023-02-15T18:20:28.791Z,67.52
2023-02-15T18:22:55.309Z,67.64
2023-02-15T18:25:25.270Z,67.70
2023-02-15T18:27:54.901Z,67.17
2023-02-15T18:30:23.963Z,66.68
2023-02-15T18:32:53.998Z,66.32
2023-02-15T18:35:24.367Z,67.60
2023-02-15T18:37:53.655Z,67.86
2023-02-15T18:40:22.958Z,68.44
2023-02-15T18:42:49.583Z,68.39
2023-02-15T18:45:24.721Z,68.23
2023-02-15T18:47:51.660Z,67.93
2023-02-15T18:50:20.954Z,68.32
2023-02-15T18:52:50.502Z,67.79
2023-02-15T18:55:18.600Z,67.94
2023-02-15T18:57:49.411Z,68.72
2023-02-15T19:00:31.994Z,68.83
2023-02-15T19:02:59.614Z,68.95
2023-02-15T19:05:28.311Z,69.33
2023-02-15T19:07:55.521Z,68.50
2023-02-15T19:10:25.399Z,69.52
2023-02-15T19:12:53.864Z,69.11
2023-02-15T19:15:26.193Z,69.17
2023-02-15T19:17:54.096Z,69.37
2023-02-15T19:20:22.529Z,69.84
2023-02-15T19:22:50.860Z,70.59
2023-02-15T19:25:22.157Z,71.15
2023-02-15T19:27:48.802Z,70.82
2023-02-15T19:30:18.962Z,70.77
2023-02-15T19:32:46.694Z,70.65
2023-02-15T19:35:20.057Z,71.08
2023-02-15T19:37:50.457Z,70.81
2023-02-15T19:40:29.022Z,70.86
2023-02-15T19:42:56.504Z,73.11
2023-02-15T19:45:26.483Z,71.18
2023-02-15T19:47:55.078Z,70.88
2023-02-15T19:50:24.227Z,70.31
2023-02-15T19:52:50.863Z,71.28
2023-02-15T19:55:22.419Z,71.45
2023-02-15T19:57:51.542Z,71.59
2023-02-15T20:00:22.083Z,71.32
2023-02-15T20:02:49.434Z,71.98
2023-02-15T20:05:16.110Z,72.35
2023-02-15T20:07:46.496Z,71.96
2023-02-15T20:10:24.594Z,71.19
2023-02-15T20:12:51.046Z,71.31
2023-02-15T20:15:20.196Z,70.88
2023-02-15T20:17:47.080Z,71.46
2023-02-15T20:20:14.086Z,71.48
2023-02-15T20:22:42.700Z,72.31
2023-02-15T20:25:18.986Z,72.65
2023-02-15T20:27:45.581Z,73.86
2023-02-15T20:30:24.703Z,72.74
2023-02-15T20:32:51.770Z,72.54
2023-02-15T20:35:21.092Z,72.77
2023-02-15T20:37:52.258Z,72.92
2023-02-15T20:40:22.454Z,71.91
2023-02-15T20:42:49.255Z,72.74
2023-02-15T20:45:18.998Z,72.37
2023-02-15T20:47:48.399Z,71.55
2023-02-15T20:50:23.083Z,71.95
2023-02-15T20:52:51.493Z,71.77
2023-02-15T20:55:21.069Z,71.39
2023-02-15T20:57:48.205Z,71.69
2023-02-15T21:00:27.189Z,71.32
2023-02-15T21:03:01.692Z,70.87
2023-02-15T21:05:35.683Z,70.85
2023-02-15T21:08:02.412Z,71.01
2023-02-15T21:10:31.890Z,70.94
2023-02-15T21:13:01.060Z,71.45
2023-02-15T21:15:35.121Z,72.37
2023-02-15T21:18:07.619Z,73.07
2023-02-15T21:20:35.830Z,72.05
2023-02-15T21:23:04.873Z,74.28
2023-02-15T21:25:36.418Z,73.27
2023-02-15T21:28:04.719Z,72.51
2023-02-15T21:30:31.249Z,72.05
2023-02-15T21:32:57.774Z,72.26
2023-02-15T21:35:24.197Z,72.78
2023-02-15T21:37:52.936Z,72.06
2023-02-15T21:40:27.082Z,72.35
2023-02-15T21:43:19.632Z,72.80
2023-02-15T21:46:18.382Z,73.65
2023-02-15T21:48:46.353Z,73.28
2023-02-15T21:51:31.501Z,73.32
2023-02-15T21:53:57.992Z,72.59
2023-02-15T21:56:24.446Z,72.60
2023-02-15T21:58:51.376Z,71.32
2023-02-15T22:01:22.893Z,71.34
2023-02-15T22:03:50.011Z,71.71
2023-02-15T22:06:16.724Z,72.39
2023-02-15T22:08:43.603Z,72.46
2023-02-15T22:11:16.498Z,72.88
2023-02-15T22:13:43.865Z,72.85
2023-02-15T22:16:16.530Z,73.41
2023-02-15T22:18:43.771Z,73.58
2023-02-15T22:21:11.238Z,73.28
2023-02-15T22:23:38.481Z,73.56
2023-02-15T22:26:16.201Z,72.41
2023-02-15T22:28:43.226Z,72.35
2023-02-15T22:31:13.347Z,72.28
2023-02-15T22:33:40.489Z,72.67
2023-02-15T22:36:19.869Z,72.90
2023-02-15T22:38:46.684Z,73.36
2023-02-15T22:41:13.569Z,72.92
2023-02-15T22:43:43.069Z,73.16
2023-02-15T22:46:16.583Z,73.50
2023-02-15T22:48:45.134Z,73.72
2023-02-15T22:51:17.512Z,73.61
2023-02-15T22:53:44.134Z,72.96
2023-02-15T22:56:18.293Z,72.62
2023-02-15T22:58:48.237Z,72.76
2023-02-15T23:01:24.344Z,72.11
2023-02-15T23:03:50.859Z,72.59
2023-02-15T23:06:17.347Z,72.56
2023-02-15T23:08:43.747Z,72.19
2023-02-15T23:11:11.168Z,72.71
2023-02-15T23:13:38.321Z,72.49
2023-02-15T23:16:07.678Z,72.25
2023-02-15T23:18:37.898Z,71.82
2023-02-15T23:21:26.693Z,72.08
2023-02-15T23:23:56.303Z,71.91
2023-02-15T23:26:28.436Z,72.55
2023-02-15T23:28:57.720Z,72.28
2023-02-15T23:31:30.409Z,72.50
2023-02-15T23:33:58.323Z,72.22
2023-02-15T23:36:30.764Z,71.84
2023-02-15T23:39:19.928Z,71.86
2023-02-15T23:41:46.375Z,72.39
2023-02-15T23:44:13.968Z,72.34
2023-02-15T23:46:46.469Z,72.06
2023-02-15T23:49:14.988Z,72.50
2023-02-15T23:51:44.182Z,72.42
2023-02-15T23:54:11.017Z,72.78
2023-02-15T23:56:38.612Z,72.71
2023-02-15T23:59:05.518Z,72.70
